sensor_id;sensor_type;location;lat;lon;timestamp;pressure;altitude;pressure_sealevel;temperature;humidity
36664;BME280;53333;51.976;20.144;2024-02-23T00:01:57;98061.34;;;9.62;58.20
36664;BME280;53333;51.976;20.144;2024-02-23T00:04:31;98072.94;;;9.61;58.11
36664;BME280;53333;51.976;20.144;2024-02-23T00:07:04;98085.31;;;9.62;58.09
36664;BME280;53333;51.976;20.144;2024-02-23T00:09:38;98072.84;;;9.63;57.99
36664;BME280;53333;51.976;20.144;2024-02-23T00:12:11;98058.53;;;9.64;58.08
36664;BME280;53333;51.976;20.144;2024-02-23T00:14:46;98067.50;;;9.63;58.15
36664;BME280;53333;51.976;20.144;2024-02-23T00:17:19;98066.53;;;9.64;58.14
36664;BME280;53333;51.976;20.144;2024-02-23T00:19:53;98068.22;;;9.65;58.10
36664;BME280;53333;51.976;20.144;2024-02-23T00:22:26;98059.25;;;9.66;58.17
36664;BME280;53333;51.976;20.144;2024-02-23T00:24:59;98047.75;;;9.66;57.97
36664;BME280;53333;51.976;20.144;2024-02-23T00:27:32;98051.28;;;9.66;58.03
36664;BME280;53333;51.976;20.144;2024-02-23T00:30:07;98038.78;;;9.67;58.12
36664;BME280;53333;51.976;20.144;2024-02-23T00:32:40;98046.78;;;9.67;58.09
36664;BME280;53333;51.976;20.144;2024-02-23T00:35:14;98042.44;;;9.66;58.21
36664;BME280;53333;51.976;20.144;2024-02-23T00:37:47;98035.41;;;9.76;57.99
36664;BME280;53333;51.976;20.144;2024-02-23T00:40:20;98030.66;;;9.68;58.04
36664;BME280;53333;51.976;20.144;2024-02-23T00:42:55;98020.25;;;9.65;58.29
36664;BME280;53333;51.976;20.144;2024-02-23T00:45:29;98029.09;;;9.66;58.21
36664;BME280;53333;51.976;20.144;2024-02-23T00:48:02;98032.59;;;9.66;58.23
36664;BME280;53333;51.976;20.144;2024-02-23T00:50:39;98026.31;;;9.67;58.20
36664;BME280;53333;51.976;20.144;2024-02-23T00:53:12;98028.00;;;9.68;58.13
36664;BME280;53333;51.976;20.144;2024-02-23T00:55:45;98022.53;;;9.70;58.29
36664;BME280;53333;51.976;20.144;2024-02-23T00:58:18;98028.88;;;9.69;58.22
36664;BME280;53333;51.976;20.144;2024-02-23T01:00:52;98012.75;;;9.70;58.33
36664;BME280;53333;51.976;20.144;2024-02-23T01:03:25;98015.53;;;9.69;58.35
36664;BME280;53333;51.976;20.144;2024-02-23T01:05:58;98006.56;;;9.70;58.32
36664;BME280;53333;51.976;20.144;2024-02-23T01:08:31;98026.19;;;9.69;58.27
36664;BME280;53333;51.976;20.144;2024-02-23T01:11:04;98016.38;;;9.69;58.33
36664;BME280;53333;51.976;20.144;2024-02-23T01:13:37;98003.03;;;9.69;58.38
36664;BME280;53333;51.976;20.144;2024-02-23T01:16:12;98003.16;;;9.68;58.39
36664;BME280;53333;51.976;20.144;2024-02-23T01:18:45;98006.66;;;9.68;58.43
36664;BME280;53333;51.976;20.144;2024-02-23T01:21:28;98003.88;;;9.70;58.42
36664;BME280;53333;51.976;20.144;2024-02-23T01:24:02;98023.53;;;9.69;58.45
36664;BME280;53333;51.976;20.144;2024-02-23T01:26:35;98019.88;;;9.70;58.33
36664;BME280;53333;51.976;20.144;2024-02-23T01:29:13;98026.81;;;9.72;58.56
36664;BME280;53333;51.976;20.144;2024-02-23T01:31:49;98005.47;;;9.72;58.47
36664;BME280;53333;51.976;20.144;2024-02-23T01:34:26;98003.66;;;9.73;58.61
36664;BME280;53333;51.976;20.144;2024-02-23T01:36:59;98011.63;;;9.73;58.58
36664;BME280;53333;51.976;20.144;2024-02-23T01:39:32;98007.91;;;9.75;58.69
36664;BME280;53333;51.976;20.144;2024-02-23T01:42:04;98015.91;;;9.75;58.62
36664;BME280;53333;51.976;20.144;2024-02-23T01:44:37;98006.19;;;9.74;58.59
36664;BME280;53333;51.976;20.144;2024-02-23T01:47:12;98009.56;;;9.76;58.67
36664;BME280;53333;51.976;20.144;2024-02-23T01:49:46;98005.09;;;9.77;58.74
36664;BME280;53333;51.976;20.144;2024-02-23T01:52:20;97996.13;;;9.78;59.00
36664;BME280;53333;51.976;20.144;2024-02-23T01:54:57;97988.88;;;9.80;58.82
36664;BME280;53333;51.976;20.144;2024-02-23T01:57:31;98000.25;;;9.82;58.78
36664;BME280;53333;51.976;20.144;2024-02-23T02:00:20;98003.75;;;9.82;58.84
36664;BME280;53333;51.976;20.144;2024-02-23T02:02:58;97997.47;;;9.84;58.84
36664;BME280;53333;51.976;20.144;2024-02-23T02:05:31;98000.97;;;9.84;58.95
36664;BME280;53333;51.976;20.144;2024-02-23T02:08:05;97994.69;;;9.85;58.81
36664;BME280;53333;51.976;20.144;2024-02-23T02:10:38;98003.50;;;9.86;58.97
36664;BME280;53333;51.976;20.144;2024-02-23T02:13:12;98003.50;;;9.86;59.06
36664;BME280;53333;51.976;20.144;2024-02-23T02:15:45;98005.22;;;9.87;58.95
36664;BME280;53333;51.976;20.144;2024-02-23T02:18:19;98004.38;;;9.86;59.11
36664;BME280;53333;51.976;20.144;2024-02-23T02:20:55;97999.06;;;9.86;59.14
36664;BME280;53333;51.976;20.144;2024-02-23T02:23:30;98011.50;;;9.86;59.40
36664;BME280;53333;51.976;20.144;2024-02-23T02:26:03;98010.56;;;9.87;59.05
36664;BME280;53333;51.976;20.144;2024-02-23T02:28:36;97996.25;;;9.88;59.19
36664;BME280;53333;51.976;20.144;2024-02-23T02:31:09;97999.66;;;9.90;59.23
36664;BME280;53333;51.976;20.144;2024-02-23T02:33:44;98008.38;;;9.92;59.47
36664;BME280;53333;51.976;20.144;2024-02-23T02:36:17;98008.25;;;9.93;59.33
36664;BME280;53333;51.976;20.144;2024-02-23T02:38:49;98008.97;;;9.95;59.53
36664;BME280;53333;51.976;20.144;2024-02-23T02:41:24;98009.81;;;9.96;59.58
36664;BME280;53333;51.976;20.144;2024-02-23T02:44:00;98014.91;;;9.99;59.96
36664;BME280;53333;51.976;20.144;2024-02-23T02:46:36;98010.41;;;9.99;59.75
36664;BME280;53333;51.976;20.144;2024-02-23T02:49:10;98006.78;;;10.00;59.70
36664;BME280;53333;51.976;20.144;2024-02-23T02:51:44;97996.00;;;10.02;60.11
36664;BME280;53333;51.976;20.144;2024-02-23T02:54:25;98005.69;;;10.03;60.00
36664;BME280;53333;51.976;20.144;2024-02-23T02:57:00;97999.38;;;10.04;60.22
36664;BME280;53333;51.976;20.144;2024-02-23T02:59:36;97998.44;;;10.05;60.36
36664;BME280;53333;51.976;20.144;2024-02-23T03:02:09;98006.44;;;10.05;60.33
36664;BME280;53333;51.976;20.144;2024-02-23T03:04:50;98006.28;;;10.07;60.63
36664;BME280;53333;51.976;20.144;2024-02-23T03:07:29;98008.09;;;10.06;60.62
36664;BME280;53333;51.976;20.144;2024-02-23T03:10:02;98007.16;;;10.07;60.59
36664;BME280;53333;51.976;20.144;2024-02-23T03:12:35;98013.31;;;10.08;60.71
36664;BME280;53333;51.976;20.144;2024-02-23T03:15:09;98003.59;;;10.07;60.88
36664;BME280;53333;51.976;20.144;2024-02-23T03:17:42;98009.94;;;10.06;61.09
36664;BME280;53333;51.976;20.144;2024-02-23T03:20:17;98011.75;;;10.05;61.27
36664;BME280;53333;51.976;20.144;2024-02-23T03:22:50;98010.06;;;10.04;61.53
36664;BME280;53333;51.976;20.144;2024-02-23T03:25:23;98016.94;;;10.07;61.64
36664;BME280;53333;51.976;20.144;2024-02-23T03:27:58;98024.09;;;10.06;61.89
36664;BME280;53333;51.976;20.144;2024-02-23T03:30:32;98022.28;;;10.07;62.05
36664;BME280;53333;51.976;20.144;2024-02-23T03:33:07;98021.31;;;10.08;62.00
36664;BME280;53333;51.976;20.144;2024-02-23T03:35:42;98025.81;;;10.07;62.11
36664;BME280;53333;51.976;20.144;2024-02-23T03:38:15;98033.69;;;10.09;62.21
36664;BME280;53333;51.976;20.144;2024-02-23T03:40:48;98032.69;;;10.10;62.31
36664;BME280;53333;51.976;20.144;2024-02-23T03:43:21;98028.13;;;10.12;62.44
36664;BME280;53333;51.976;20.144;2024-02-23T03:45:54;98036.00;;;10.13;62.31
36664;BME280;53333;51.976;20.144;2024-02-23T03:48:27;98035.13;;;10.13;62.44
36664;BME280;53333;51.976;20.144;2024-02-23T03:51:13;98037.66;;;10.14;62.53
36664;BME280;53333;51.976;20.144;2024-02-23T03:53:47;98037.53;;;10.16;62.64
36664;BME280;53333;51.976;20.144;2024-02-23T03:56:20;98032.97;;;10.18;62.64
36664;BME280;53333;51.976;20.144;2024-02-23T03:58:53;98039.84;;;10.21;62.81
36664;BME280;53333;51.976;20.144;2024-02-23T04:01:25;98034.38;;;10.22;62.77
36664;BME280;53333;51.976;20.144;2024-02-23T04:03:58;98051.22;;;10.23;62.98
36664;BME280;53333;51.976;20.144;2024-02-23T04:06:33;98044.09;;;10.23;63.05
36664;BME280;53333;51.976;20.144;2024-02-23T04:09:07;98051.22;;;10.23;63.34
36664;BME280;53333;51.976;20.144;2024-02-23T04:11:40;98045.91;;;10.23;63.35
36664;BME280;53333;51.976;20.144;2024-02-23T04:14:13;98060.09;;;10.23;63.61
36664;BME280;53333;51.976;20.144;2024-02-23T04:16:50;98054.91;;;10.22;63.90
36664;BME280;53333;51.976;20.144;2024-02-23T04:19:23;98052.34;;;10.20;63.89
36664;BME280;53333;51.976;20.144;2024-02-23T04:21:58;98062.06;;;10.21;64.31
36664;BME280;53333;51.976;20.144;2024-02-23T04:24:30;98059.63;;;10.18;64.43
36664;BME280;53333;51.976;20.144;2024-02-23T04:27:06;98062.31;;;10.18;64.67
36664;BME280;53333;51.976;20.144;2024-02-23T04:29:39;98051.84;;;10.26;63.89
36664;BME280;53333;51.976;20.144;2024-02-23T04:32:12;98064.22;;;10.16;64.68
36664;BME280;53333;51.976;20.144;2024-02-23T04:34:46;98064.56;;;10.23;63.87
36664;BME280;53333;51.976;20.144;2024-02-23T04:37:20;98072.84;;;10.08;64.48
36664;BME280;53333;51.976;20.144;2024-02-23T04:39:53;98071.41;;;10.04;65.15
36664;BME280;53333;51.976;20.144;2024-02-23T04:42:26;98085.09;;;9.99;65.56
36664;BME280;53333;51.976;20.144;2024-02-23T04:44:59;98084.50;;;9.96;65.88
36664;BME280;53333;51.976;20.144;2024-02-23T04:47:35;98091.03;;;9.92;66.06
36664;BME280;53333;51.976;20.144;2024-02-23T04:50:08;98090.31;;;9.90;66.50
36664;BME280;53333;51.976;20.144;2024-02-23T04:52:49;98088.97;;;9.84;66.60
36664;BME280;53333;51.976;20.144;2024-02-23T04:55:22;98085.94;;;9.77;66.73
36664;BME280;53333;51.976;20.144;2024-02-23T04:57:55;98088.84;;;9.74;67.04
36664;BME280;53333;51.976;20.144;2024-02-23T05:00:28;98086.41;;;9.71;67.30
36664;BME280;53333;51.976;20.144;2024-02-23T05:03:05;98102.63;;;9.68;67.59
36664;BME280;53333;51.976;20.144;2024-02-23T05:05:43;98103.88;;;9.64;67.79
36664;BME280;53333;51.976;20.144;2024-02-23T05:08:17;98105.91;;;9.60;68.05
36664;BME280;53333;51.976;20.144;2024-02-23T05:10:50;98108.06;;;9.55;68.21
36664;BME280;53333;51.976;20.144;2024-02-23T05:13:24;98110.25;;;9.50;68.19
36664;BME280;53333;51.976;20.144;2024-02-23T05:15:57;98117.53;;;9.48;68.36
36664;BME280;53333;51.976;20.144;2024-02-23T05:18:29;98130.09;;;9.46;68.56
36664;BME280;53333;51.976;20.144;2024-02-23T05:21:03;98119.69;;;9.43;68.67
36664;BME280;53333;51.976;20.144;2024-02-23T05:23:42;98123.56;;;9.50;68.00
36664;BME280;53333;51.976;20.144;2024-02-23T05:26:18;98133.25;;;9.40;68.45
36664;BME280;53333;51.976;20.144;2024-02-23T05:28:51;98133.47;;;9.37;68.71
36664;BME280;53333;51.976;20.144;2024-02-23T05:31:44;98144.13;;;9.37;68.83
36664;BME280;53333;51.976;20.144;2024-02-23T05:34:18;98149.06;;;9.30;69.09
36664;BME280;53333;51.976;20.144;2024-02-23T05:36:52;98152.81;;;9.27;69.26
36664;BME280;53333;51.976;20.144;2024-02-23T05:39:26;98151.34;;;9.23;69.49
36664;BME280;53333;51.976;20.144;2024-02-23T05:41:59;98142.63;;;9.21;69.58
36664;BME280;53333;51.976;20.144;2024-02-23T05:44:32;98138.25;;;9.20;69.76
36664;BME280;53333;51.976;20.144;2024-02-23T05:47:06;98150.84;;;9.18;69.92
36664;BME280;53333;51.976;20.144;2024-02-23T05:49:53;98154.56;;;9.16;69.86
36664;BME280;53333;51.976;20.144;2024-02-23T05:52:26;98153.84;;;9.14;69.92
36664;BME280;53333;51.976;20.144;2024-02-23T05:55:00;98160.16;;;9.13;70.10
36664;BME280;53333;51.976;20.144;2024-02-23T05:57:33;98174.41;;;9.12;70.31
36664;BME280;53333;51.976;20.144;2024-02-23T06:00:07;98153.13;;;9.12;70.41
36664;BME280;53333;51.976;20.144;2024-02-23T06:02:43;98178.78;;;9.13;70.30
36664;BME280;53333;51.976;20.144;2024-02-23T06:05:16;98177.19;;;9.10;70.42
36664;BME280;53333;51.976;20.144;2024-02-23T06:07:49;98182.63;;;9.08;70.46
36664;BME280;53333;51.976;20.144;2024-02-23T06:10:24;98176.47;;;9.08;70.56
36664;BME280;53333;51.976;20.144;2024-02-23T06:12:59;98179.97;;;9.08;70.75
36664;BME280;53333;51.976;20.144;2024-02-23T06:15:35;98194.88;;;9.11;70.69
36664;BME280;53333;51.976;20.144;2024-02-23T06:18:08;98195.72;;;9.12;70.66
36664;BME280;53333;51.976;20.144;2024-02-23T06:20:41;98193.06;;;9.12;70.79
36664;BME280;53333;51.976;20.144;2024-02-23T06:23:14;98198.50;;;9.10;70.73
36664;BME280;53333;51.976;20.144;2024-02-23T06:25:48;98196.69;;;9.11;70.76
36664;BME280;53333;51.976;20.144;2024-02-23T06:28:21;98199.34;;;9.11;71.02
36664;BME280;53333;51.976;20.144;2024-02-23T06:30:54;98210.00;;;9.11;70.86
36664;BME280;53333;51.976;20.144;2024-02-23T06:33:27;98198.50;;;9.10;70.96
36664;BME280;53333;51.976;20.144;2024-02-23T06:36:01;98212.66;;;9.11;71.01
36664;BME280;53333;51.976;20.144;2024-02-23T06:38:35;98216.19;;;9.11;70.99
36664;BME280;53333;51.976;20.144;2024-02-23T06:41:09;98218.75;;;9.13;71.09
36664;BME280;53333;51.976;20.144;2024-02-23T06:43:43;98222.13;;;9.15;71.31
36664;BME280;53333;51.976;20.144;2024-02-23T06:46:18;98225.66;;;9.15;71.30
36664;BME280;53333;51.976;20.144;2024-02-23T06:48:51;98223.81;;;9.16;71.28
36664;BME280;53333;51.976;20.144;2024-02-23T06:51:25;98241.50;;;9.17;71.21
36664;BME280;53333;51.976;20.144;2024-02-23T06:53:58;98230.84;;;9.17;71.32
36664;BME280;53333;51.976;20.144;2024-02-23T06:56:32;98232.47;;;9.19;71.41
36664;BME280;53333;51.976;20.144;2024-02-23T06:59:05;98239.25;;;9.23;71.38
36664;BME280;53333;51.976;20.144;2024-02-23T07:01:47;98242.44;;;9.29;71.49
36664;BME280;53333;51.976;20.144;2024-02-23T07:04:20;98248.50;;;9.31;71.20
36664;BME280;53333;51.976;20.144;2024-02-23T07:06:54;98250.94;;;9.34;71.25
36664;BME280;53333;51.976;20.144;2024-02-23T07:09:27;98254.34;;;9.36;71.10
36664;BME280;53333;51.976;20.144;2024-02-23T07:12:01;98256.66;;;9.40;71.39
36664;BME280;53333;51.976;20.144;2024-02-23T07:14:35;98261.03;;;9.41;71.27
36664;BME280;53333;51.976;20.144;2024-02-23T07:17:08;98261.88;;;9.42;71.31
36664;BME280;53333;51.976;20.144;2024-02-23T07:19:44;98269.75;;;9.43;71.31
36664;BME280;53333;51.976;20.144;2024-02-23T07:22:17;98271.22;;;9.48;71.43
36664;BME280;53333;51.976;20.144;2024-02-23T07:24:51;98271.09;;;9.49;71.30
36664;BME280;53333;51.976;20.144;2024-02-23T07:27:26;98285.91;;;9.53;71.44
36664;BME280;53333;51.976;20.144;2024-02-23T07:29:58;98294.53;;;9.57;71.35
36664;BME280;53333;51.976;20.144;2024-02-23T07:32:31;98301.56;;;9.58;71.41
36664;BME280;53333;51.976;20.144;2024-02-23T07:35:05;98299.88;;;9.57;71.37
36664;BME280;53333;51.976;20.144;2024-02-23T07:37:38;98299.88;;;9.57;71.38
36664;BME280;53333;51.976;20.144;2024-02-23T07:40:11;98297.31;;;9.55;71.49
36664;BME280;53333;51.976;20.144;2024-02-23T07:42:47;98313.19;;;9.57;71.59
36664;BME280;53333;51.976;20.144;2024-02-23T07:45:20;98308.72;;;9.57;71.56
36664;BME280;53333;51.976;20.144;2024-02-23T07:47:53;98320.97;;;9.60;71.73
36664;BME280;53333;51.976;20.144;2024-02-23T07:50:26;98324.25;;;9.63;71.61
36664;BME280;53333;51.976;20.144;2024-02-23T07:52:58;98331.28;;;9.64;71.72
36664;BME280;53333;51.976;20.144;2024-02-23T07:55:31;98330.00;;;9.70;71.61
36664;BME280;53333;51.976;20.144;2024-02-23T07:58:07;98329.78;;;9.73;71.67
36664;BME280;53333;51.976;20.144;2024-02-23T08:00:40;98330.50;;;9.75;71.65
36664;BME280;53333;51.976;20.144;2024-02-23T08:03:13;98335.72;;;9.77;71.75
36664;BME280;53333;51.976;20.144;2024-02-23T08:05:49;98341.78;;;9.79;71.79
36664;BME280;53333;51.976;20.144;2024-02-23T08:08:22;98338.78;;;9.84;71.90
36664;BME280;53333;51.976;20.144;2024-02-23T08:10:58;98348.25;;;9.88;71.85
36664;BME280;53333;51.976;20.144;2024-02-23T08:13:32;98348.75;;;9.93;71.91
36664;BME280;53333;51.976;20.144;2024-02-23T08:16:06;98343.09;;;9.97;71.83
36664;BME280;53333;51.976;20.144;2024-02-23T08:18:39;98350.75;;;10.02;71.81
36664;BME280;53333;51.976;20.144;2024-02-23T08:21:12;98359.25;;;10.07;71.62
36664;BME280;53333;51.976;20.144;2024-02-23T08:23:45;98364.34;;;10.10;71.62
36664;BME280;53333;51.976;20.144;2024-02-23T08:26:18;98369.34;;;10.15;71.91
36664;BME280;53333;51.976;20.144;2024-02-23T08:28:52;98372.00;;;10.15;71.82
36664;BME280;53333;51.976;20.144;2024-02-23T08:31:25;98374.44;;;10.18;71.82
36664;BME280;53333;51.976;20.144;2024-02-23T08:33:58;98375.06;;;10.22;71.84
36664;BME280;53333;51.976;20.144;2024-02-23T08:36:31;98381.84;;;10.26;71.64
36664;BME280;53333;51.976;20.144;2024-02-23T08:39:04;98387.94;;;10.28;71.66
36664;BME280;53333;51.976;20.144;2024-02-23T08:41:37;98377.28;;;10.28;71.77
36664;BME280;53333;51.976;20.144;2024-02-23T08:44:12;98382.31;;;10.32;71.55
36664;BME280;53333;51.976;20.144;2024-02-23T08:46:45;98389.09;;;10.36;71.58
36664;BME280;53333;51.976;20.144;2024-02-23T08:49:20;98388.63;;;10.43;71.53
36664;BME280;53333;51.976;20.144;2024-02-23T08:51:53;98400.56;;;10.50;71.59
36664;BME280;53333;51.976;20.144;2024-02-23T08:54:28;98410.84;;;10.54;71.29
36664;BME280;53333;51.976;20.144;2024-02-23T08:57:00;98412.44;;;10.57;71.35
36664;BME280;53333;51.976;20.144;2024-02-23T08:59:39;98402.63;;;10.58;71.39
36664;BME280;53333;51.976;20.144;2024-02-23T09:02:12;98407.72;;;10.61;71.32
36664;BME280;53333;51.976;20.144;2024-02-23T09:04:45;98406.41;;;10.66;71.18
36664;BME280;53333;51.976;20.144;2024-02-23T09:07:18;98408.63;;;10.72;71.15
36664;BME280;53333;51.976;20.144;2024-02-23T09:09:53;98407.50;;;10.75;71.00
36664;BME280;53333;51.976;20.144;2024-02-23T09:12:27;98412.00;;;10.75;71.00
36664;BME280;53333;51.976;20.144;2024-02-23T09:15:01;98416.16;;;10.79;71.19
36664;BME280;53333;51.976;20.144;2024-02-23T09:17:34;98422.72;;;10.86;70.84
36664;BME280;53333;51.976;20.144;2024-02-23T09:20:09;98417.84;;;10.91;70.78
36664;BME280;53333;51.976;20.144;2024-02-23T09:22:42;98426.38;;;10.96;70.62
36664;BME280;53333;51.976;20.144;2024-02-23T09:25:15;98424.44;;;10.98;70.72
36664;BME280;53333;51.976;20.144;2024-02-23T09:27:48;98428.66;;;11.01;70.59
36664;BME280;53333;51.976;20.144;2024-02-23T09:30:23;98432.81;;;11.05;70.57
36664;BME280;53333;51.976;20.144;2024-02-23T09:32:56;98432.59;;;11.08;70.69
36664;BME280;53333;51.976;20.144;2024-02-23T09:35:29;98433.94;;;11.14;70.56
36664;BME280;53333;51.976;20.144;2024-02-23T09:38:02;98443.28;;;11.19;70.50
36664;BME280;53333;51.976;20.144;2024-02-23T09:40:35;98436.72;;;11.23;70.13
36664;BME280;53333;51.976;20.144;2024-02-23T09:43:10;98438.41;;;11.24;69.96
36664;BME280;53333;51.976;20.144;2024-02-23T09:45:50;98439.41;;;11.23;70.21
36664;BME280;53333;51.976;20.144;2024-02-23T09:48:24;98451.91;;;11.23;70.15
36664;BME280;53333;51.976;20.144;2024-02-23T09:50:57;98450.34;;;11.20;70.08
36664;BME280;53333;51.976;20.144;2024-02-23T09:53:33;98447.91;;;11.17;70.31
36664;BME280;53333;51.976;20.144;2024-02-23T09:56:09;98456.88;;;11.16;70.09
36664;BME280;53333;51.976;20.144;2024-02-23T09:58:43;98455.03;;;11.17;70.13
36664;BME280;53333;51.976;20.144;2024-02-23T10:01:26;98453.25;;;11.17;70.15
36664;BME280;53333;51.976;20.144;2024-02-23T10:04:01;98463.94;;;11.17;70.36
36664;BME280;53333;51.976;20.144;2024-02-23T10:06:36;98471.09;;;11.17;70.16
36664;BME280;53333;51.976;20.144;2024-02-23T10:09:09;98474.63;;;11.17;70.03
36664;BME280;53333;51.976;20.144;2024-02-23T10:11:44;98481.66;;;11.18;70.23
36664;BME280;53333;51.976;20.144;2024-02-23T10:14:17;98480.56;;;11.21;70.09
36664;BME280;53333;51.976;20.144;2024-02-23T10:16:51;98482.41;;;11.20;70.08
36664;BME280;53333;51.976;20.144;2024-02-23T10:19:25;98484.97;;;11.22;69.98
36664;BME280;53333;51.976;20.144;2024-02-23T10:22:00;98494.06;;;11.19;70.05
36664;BME280;53333;51.976;20.144;2024-02-23T10:24:33;98485.44;;;11.16;70.10
36664;BME280;53333;51.976;20.144;2024-02-23T10:27:06;98505.34;;;11.12;70.15
36664;BME280;53333;51.976;20.144;2024-02-23T10:29:39;98508.22;;;11.08;70.16
36664;BME280;53333;51.976;20.144;2024-02-23T10:32:15;98509.34;;;11.06;70.48
36664;BME280;53333;51.976;20.144;2024-02-23T10:34:48;98516.47;;;11.05;70.50
36664;BME280;53333;51.976;20.144;2024-02-23T10:37:22;98511.91;;;11.07;70.44
36664;BME280;53333;51.976;20.144;2024-02-23T10:43:12;98520.63;;;11.09;70.43
36664;BME280;53333;51.976;20.144;2024-02-23T10:45:46;98527.81;;;11.09;70.51
36664;BME280;53333;51.976;20.144;2024-02-23T10:48:21;98528.66;;;11.09;70.69
36664;BME280;53333;51.976;20.144;2024-02-23T10:50:57;98528.66;;;11.09;70.64
36664;BME280;53333;51.976;20.144;2024-02-23T10:53:31;98531.09;;;11.13;70.59
36664;BME280;53333;51.976;20.144;2024-02-23T10:56:05;98539.47;;;11.19;70.53
36664;BME280;53333;51.976;20.144;2024-02-23T10:58:43;98540.97;;;11.23;70.66
36664;BME280;53333;51.976;20.144;2024-02-23T11:01:18;98539.38;;;11.32;70.59
36664;BME280;53333;51.976;20.144;2024-02-23T11:03:59;98545.63;;;11.44;70.57
36664;BME280;53333;51.976;20.144;2024-02-23T11:06:34;98548.31;;;11.55;70.24
36664;BME280;53333;51.976;20.144;2024-02-23T11:09:08;98548.56;;;11.63;70.01
36664;BME280;53333;51.976;20.144;2024-02-23T11:11:51;98552.44;;;11.71;69.85
36664;BME280;53333;51.976;20.144;2024-02-23T11:14:31;98557.41;;;11.75;69.94
36664;BME280;53333;51.976;20.144;2024-02-23T11:17:05;98558.16;;;11.77;69.61
36664;BME280;53333;51.976;20.144;2024-02-23T11:19:39;98555.75;;;11.74;69.72
36664;BME280;53333;51.976;20.144;2024-02-23T11:22:12;98567.53;;;11.72;69.76
36664;BME280;53333;51.976;20.144;2024-02-23T11:25:00;98560.97;;;11.76;69.70
36664;BME280;53333;51.976;20.144;2024-02-23T11:27:35;98577.63;;;11.79;69.71
36664;BME280;53333;51.976;20.144;2024-02-23T11:30:08;98578.25;;;11.94;69.18
36664;BME280;53333;51.976;20.144;2024-02-23T11:32:44;98572.63;;;11.86;69.43
36664;BME280;53333;51.976;20.144;2024-02-23T11:35:25;98576.16;;;11.87;69.64
36664;BME280;53333;51.976;20.144;2024-02-23T11:37:59;98582.59;;;11.84;69.61
36664;BME280;53333;51.976;20.144;2024-02-23T11:40:38;98584.28;;;11.85;69.53
36664;BME280;53333;51.976;20.144;2024-02-23T11:43:12;98586.72;;;11.88;69.41
36664;BME280;53333;51.976;20.144;2024-02-23T11:45:46;98589.16;;;11.91;69.44
36664;BME280;53333;51.976;20.144;2024-02-23T11:48:19;98591.84;;;11.91;69.34
36664;BME280;53333;51.976;20.144;2024-02-23T11:50:57;98593.78;;;11.89;69.34
36664;BME280;53333;51.976;20.144;2024-02-23T11:53:30;98597.31;;;11.90;69.63
36664;BME280;53333;51.976;20.144;2024-02-23T11:56:04;98597.31;;;11.90;69.47
36664;BME280;53333;51.976;20.144;2024-02-23T11:58:37;98596.81;;;11.85;69.55
36664;BME280;53333;51.976;20.144;2024-02-23T12:01:10;98604.00;;;11.84;69.42
36664;BME280;53333;51.976;20.144;2024-02-23T12:03:43;98609.38;;;11.84;69.39
36664;BME280;53333;51.976;20.144;2024-02-23T12:06:17;98613.59;;;11.87;69.66
36664;BME280;53333;51.976;20.144;2024-02-23T12:08:50;98624.06;;;11.90;69.70
36664;BME280;53333;51.976;20.144;2024-02-23T12:11:24;98630.41;;;11.89;69.70
36664;BME280;53333;51.976;20.144;2024-02-23T12:13:57;98639.50;;;11.86;69.68
36664;BME280;53333;51.976;20.144;2024-02-23T12:16:33;98630.00;;;11.82;69.85
36664;BME280;53333;51.976;20.144;2024-02-23T12:19:07;98623.09;;;11.79;69.79
36664;BME280;53333;51.976;20.144;2024-02-23T12:21:45;98631.59;;;11.85;69.89
36664;BME280;53333;51.976;20.144;2024-02-23T12:24:18;98623.69;;;11.83;69.72
36664;BME280;53333;51.976;20.144;2024-02-23T12:26:53;98622.84;;;11.82;70.01
36664;BME280;53333;51.976;20.144;2024-02-23T12:29:26;98630.53;;;11.87;69.86
36664;BME280;53333;51.976;20.144;2024-02-23T12:32:03;98642.59;;;11.93;70.00
36664;BME280;53333;51.976;20.144;2024-02-23T12:34:37;98640.75;;;11.93;69.64
36664;BME280;53333;51.976;20.144;2024-02-23T12:37:14;98632.47;;;11.96;69.89
36664;BME280;53333;51.976;20.144;2024-02-23T12:39:47;98642.22;;;11.97;69.81
36664;BME280;53333;51.976;20.144;2024-02-23T12:42:20;98651.97;;;11.98;69.83
36664;BME280;53333;51.976;20.144;2024-02-23T12:44:53;98647.09;;;12.04;69.59
36664;BME280;53333;51.976;20.144;2024-02-23T12:47:26;98642.47;;;12.06;69.78
36664;BME280;53333;51.976;20.144;2024-02-23T12:50:00;98643.06;;;12.09;69.80
36664;BME280;53333;51.976;20.144;2024-02-23T12:52:34;98635.69;;;12.13;69.65
36664;BME280;53333;51.976;20.144;2024-02-23T12:55:08;98655.72;;;12.18;69.94
36664;BME280;53333;51.976;20.144;2024-02-23T12:57:41;98655.50;;;12.22;69.50
36664;BME280;53333;51.976;20.144;2024-02-23T13:00:14;98658.06;;;12.23;69.51
36664;BME280;53333;51.976;20.144;2024-02-23T13:02:47;98656.25;;;12.35;69.23
36664;BME280;53333;51.976;20.144;2024-02-23T13:05:20;98664.13;;;12.25;69.13
36664;BME280;53333;51.976;20.144;2024-02-23T13:07:55;98671.31;;;12.25;69.40
36664;BME280;53333;51.976;20.144;2024-02-23T13:10:41;98659.16;;;12.21;69.42
36664;BME280;53333;51.976;20.144;2024-02-23T13:13:21;98658.28;;;12.20;69.51
36664;BME280;53333;51.976;20.144;2024-02-23T13:15:55;98669.00;;;12.20;69.39
36664;BME280;53333;51.976;20.144;2024-02-23T13:18:28;98667.31;;;12.30;68.97
36664;BME280;53333;51.976;20.144;2024-02-23T13:21:01;98675.47;;;12.17;69.09
36664;BME280;53333;51.976;20.144;2024-02-23T13:23:37;98681.19;;;12.13;69.27
36664;BME280;53333;51.976;20.144;2024-02-23T13:26:11;98688.72;;;12.08;69.35
36664;BME280;53333;51.976;20.144;2024-02-23T13:28:46;98692.47;;;12.05;69.62
36664;BME280;53333;51.976;20.144;2024-02-23T13:31:20;98692.72;;;12.02;69.67
36664;BME280;53333;51.976;20.144;2024-02-23T13:33:52;98688.44;;;12.11;69.17
36664;BME280;53333;51.976;20.144;2024-02-23T13:36:26;98687.84;;;11.96;69.57